createdAt,value
2023-04-17T00:01:33.411Z,10.06
2023-04-17T00:04:01.948Z,10.21
2023-04-17T00:06:33.898Z,9.75
2023-04-17T00:09:02.259Z,9.98
2023-04-17T00:11:30.847Z,10.01
2023-04-17T00:14:00.462Z,10.00
2023-04-17T00:16:28.921Z,10.34
2023-04-17T00:18:57.584Z,9.94
2023-04-17T00:21:26.092Z,10.02
2023-04-17T00:23:54.248Z,9.83
2023-04-17T00:26:22.726Z,10.07
2023-04-17T00:28:52.013Z,9.83
2023-04-17T00:31:21.748Z,9.70
2023-04-17T00:33:50.044Z,9.91
2023-04-17T00:36:18.309Z,9.80
2023-04-17T00:38:46.546Z,9.58
2023-04-17T00:41:15.046Z,9.61
2023-04-17T00:43:43.267Z,10.11
2023-04-17T00:46:13.146Z,10.02
2023-04-17T00:48:44.284Z,9.59
2023-04-17T00:51:12.800Z,9.67
2023-04-17T00:53:41.624Z,10.01
2023-04-17T00:56:10.034Z,9.75
2023-04-17T00:58:39.028Z,9.48
2023-04-17T01:01:07.955Z,9.49
2023-04-17T01:03:36.765Z,8.98
2023-04-17T01:06:07.357Z,9.85
2023-04-17T01:08:41.690Z,9.87
2023-04-17T01:11:10.717Z,9.95
2023-04-17T01:13:46.435Z,10.07
2023-04-17T01:16:14.918Z,9.91
2023-04-17T01:18:43.495Z,10.08
2023-04-17T01:21:13.203Z,10.29
2023-04-17T01:23:47.040Z,10.29
2023-04-17T01:26:21.125Z,9.88
2023-04-17T01:28:54.344Z,10.01
2023-04-17T01:31:22.997Z,10.37
2023-04-17T01:33:52.214Z,10.40
2023-04-17T01:36:20.617Z,10.22
2023-04-17T01:38:48.946Z,10.09
2023-04-17T01:41:18.623Z,10.32
2023-04-17T01:43:48.032Z,10.21
2023-04-17T01:46:16.375Z,10.36
2023-04-17T01:48:44.686Z,10.25
2023-04-17T01:51:13.001Z,9.58
2023-04-17T01:53:41.564Z,10.16
2023-04-17T01:56:09.891Z,10.29
2023-04-17T01:58:39.620Z,9.85
2023-04-17T02:01:08.147Z,10.23
2023-04-17T02:03:36.566Z,10.30
2023-04-17T02:06:05.303Z,10.05
2023-04-17T02:08:33.754Z,10.11
2023-04-17T02:11:02.735Z,10.37
2023-04-17T02:13:31.233Z,10.34
2023-04-17T02:16:00.986Z,10.48
2023-04-17T02:18:33.086Z,10.21
2023-04-17T02:21:01.834Z,10.76
2023-04-17T02:23:30.148Z,10.83
2023-04-17T02:25:58.587Z,10.49
2023-04-17T02:28:26.813Z,10.65
2023-04-17T02:30:55.219Z,10.85
2023-04-17T02:33:28.553Z,10.51
2023-04-17T02:35:56.828Z,10.50
2023-04-17T02:38:32.592Z,10.96
2023-04-17T02:41:01.176Z,10.83
2023-04-17T02:43:31.950Z,10.98
2023-04-17T02:46:00.231Z,10.62
2023-04-17T02:48:30.467Z,10.83
2023-04-17T02:51:00.025Z,11.04
2023-04-17T02:53:28.699Z,10.83
2023-04-17T02:55:56.948Z,10.91
2023-04-17T02:58:26.032Z,10.89
2023-04-17T03:01:02.631Z,10.65
2023-04-17T03:03:35.747Z,10.60
2023-04-17T03:06:08.355Z,10.96
2023-04-17T03:08:38.665Z,10.11
2023-04-17T03:11:07.403Z,10.66
2023-04-17T03:13:37.118Z,10.56
2023-04-17T03:16:06.129Z,10.78
2023-04-17T03:18:40.662Z,10.64
2023-04-17T03:21:09.292Z,10.57
2023-04-17T03:23:37.755Z,10.59
2023-04-17T03:26:07.742Z,10.66
2023-04-17T03:28:36.407Z,10.73
2023-04-17T03:31:06.621Z,10.89
2023-04-17T03:33:38.900Z,10.78
2023-04-17T03:36:08.035Z,10.75
2023-04-17T03:38:39.637Z,10.64
2023-04-17T03:41:47.221Z,10.82
2023-04-17T03:44:50.695Z,10.66
2023-04-17T03:47:19.195Z,10.49
2023-04-17T03:49:48.970Z,10.71
2023-04-17T03:52:17.648Z,9.82
2023-04-17T03:54:49.879Z,10.38
2023-04-17T03:57:18.126Z,9.48
2023-04-17T03:59:46.816Z,9.83
2023-04-17T04:02:15.204Z,10.27
2023-04-17T04:04:44.507Z,10.57
2023-04-17T04:07:17.573Z,10.80
2023-04-17T04:09:46.435Z,11.02
2023-04-17T04:12:15.205Z,10.68
2023-04-17T04:14:46.251Z,10.62
2023-04-17T04:17:16.059Z,10.76
2023-04-17T04:19:45.080Z,11.07
2023-04-17T04:22:14.660Z,10.71
2023-04-17T04:24:53.772Z,10.63
2023-04-17T04:27:27.799Z,11.04
2023-04-17T04:29:58.930Z,10.93
2023-04-17T04:32:29.119Z,10.74
2023-04-17T04:34:58.493Z,10.78
2023-04-17T04:37:30.075Z,10.88
2023-04-17T04:40:10.663Z,10.72
2023-04-17T04:42:43.119Z,10.80
2023-04-17T04:45:16.112Z,10.68
2023-04-17T04:47:45.752Z,10.73
2023-04-17T04:50:14.099Z,9.88
2023-04-17T04:52:42.273Z,10.76
2023-04-17T04:55:24.601Z,10.79
2023-04-17T04:57:55.585Z,11.12
2023-04-17T05:00:25.179Z,10.18
2023-04-17T05:02:59.314Z,9.93
2023-04-17T05:05:29.583Z,10.57
2023-04-17T05:07:58.170Z,11.23
2023-04-17T05:10:34.281Z,10.88
2023-04-17T05:13:06.131Z,11.40
2023-04-17T05:15:34.391Z,11.05
2023-04-17T05:18:03.288Z,11.12
2023-04-17T05:20:35.862Z,11.06
2023-04-17T05:23:06.168Z,10.85
2023-04-17T05:25:35.978Z,11.02
2023-04-17T05:28:07.934Z,11.04
2023-04-17T05:30:36.661Z,11.10
2023-04-17T05:33:14.568Z,11.22
2023-04-17T05:35:49.130Z,11.36
2023-04-17T05:38:17.620Z,11.54
2023-04-17T05:40:47.564Z,11.82
2023-04-17T05:43:15.800Z,11.59
2023-04-17T05:45:47.858Z,11.50
2023-04-17T05:48:16.282Z,11.29
2023-04-17T05:50:44.935Z,11.37
2023-04-17T05:53:13.945Z,11.50
2023-04-17T05:55:56.842Z,11.68
2023-04-17T05:58:26.583Z,11.24
2023-04-17T06:00:58.004Z,11.49
2023-04-17T06:03:28.464Z,10.75
2023-04-17T06:06:26.687Z,10.66
2023-04-17T06:08:55.811Z,11.56
2023-04-17T06:11:27.286Z,10.56
2023-04-17T06:13:55.543Z,10.65
2023-04-17T06:16:23.870Z,11.12
2023-04-17T06:18:52.401Z,11.37
2023-04-17T06:21:21.243Z,11.65
2023-04-17T06:23:49.787Z,11.88
2023-04-17T06:26:18.583Z,10.94
2023-04-17T06:28:48.640Z,10.67
2023-04-17T06:31:18.319Z,10.90
2023-04-17T06:33:49.897Z,11.61
2023-04-17T06:36:20.448Z,10.74
2023-04-17T06:38:50.691Z,10.70
2023-04-17T06:41:21.732Z,10.88
2023-04-17T06:43:51.492Z,12.03
2023-04-17T06:46:20.049Z,12.37
2023-04-17T06:48:49.462Z,12.19
2023-04-17T06:51:21.887Z,12.77
2023-04-17T06:53:50.111Z,12.75
2023-04-17T06:56:19.534Z,12.48
2023-04-17T06:59:03.891Z,12.39
2023-04-17T07:01:39.801Z,12.36
2023-04-17T07:04:13.405Z,12.32
2023-04-17T07:06:41.963Z,11.92
2023-04-17T07:09:12.912Z,11.58
2023-04-17T07:11:41.437Z,11.88
2023-04-17T07:14:10.951Z,11.63
2023-04-17T07:16:42.429Z,12.65
2023-04-17T07:19:10.965Z,13.43
2023-04-17T07:21:39.537Z,12.74
2023-04-17T07:24:08.156Z,12.98
2023-04-17T07:26:37.168Z,13.02
2023-04-17T07:29:05.582Z,13.69
2023-04-17T07:31:34.073Z,13.22
2023-04-17T07:34:05.316Z,13.46
2023-04-17T07:36:33.686Z,13.33
2023-04-17T07:39:02.006Z,13.17
2023-04-17T07:41:30.381Z,13.32
2023-04-17T07:43:59.188Z,13.71
2023-04-17T07:46:27.674Z,13.38
2023-04-17T07:48:55.929Z,13.94
2023-04-17T07:51:26.263Z,14.04
2023-04-17T07:53:54.549Z,13.55
2023-04-17T07:56:22.913Z,13.78
2023-04-17T07:58:52.047Z,14.13
2023-04-17T08:01:20.859Z,14.03
2023-04-17T08:03:49.731Z,14.53
2023-04-17T08:06:18.146Z,14.94
2023-04-17T08:08:47.861Z,15.18
2023-04-17T08:11:16.417Z,15.49
2023-04-17T08:13:44.709Z,15.14
2023-04-17T08:16:12.952Z,15.17
2023-04-17T08:18:42.192Z,14.78
2023-04-17T08:21:10.828Z,14.44
2023-04-17T08:23:39.236Z,14.54
2023-04-17T08:26:08.953Z,14.64
2023-04-17T08:28:37.219Z,15.29
2023-04-17T08:31:05.989Z,14.54
2023-04-17T08:33:34.161Z,15.26
2023-04-17T08:36:04.271Z,14.82
2023-04-17T08:38:33.624Z,14.65
2023-04-17T08:41:06.231Z,14.91
2023-04-17T08:43:37.486Z,14.93
2023-04-17T08:46:06.713Z,14.66
2023-04-17T08:48:35.026Z,14.92
2023-04-17T08:51:03.722Z,14.86
2023-04-17T08:53:31.991Z,14.47
2023-04-17T08:56:08.270Z,14.73
2023-04-17T08:58:38.816Z,15.02
2023-04-17T09:01:11.618Z,14.94
2023-04-17T09:03:44.159Z,15.18
2023-04-17T09:06:13.264Z,15.66
2023-04-17T09:08:56.066Z,15.19
2023-04-17T09:11:24.286Z,15.48
2023-04-17T09:13:54.396Z,16.11
2023-04-17T09:16:24.856Z,15.75
2023-04-17T09:18:53.144Z,15.63
2023-04-17T09:21:21.509Z,15.83
2023-04-17T09:23:51.961Z,15.15
2023-04-17T09:26:22.111Z,15.78
2023-04-17T09:29:07.943Z,16.35
2023-04-17T09:31:37.731Z,16.24
2023-04-17T09:34:07.790Z,16.13
2023-04-17T09:36:38.466Z,15.58
2023-04-17T09:39:17.369Z,15.79
2023-04-17T09:41:45.730Z,15.98
2023-04-17T09:44:26.690Z,16.45
2023-04-17T09:46:55.902Z,16.49
2023-04-17T09:49:33.906Z,16.89
2023-04-17T09:52:02.435Z,16.29
2023-04-17T09:54:32.681Z,16.63
2023-04-17T09:57:03.902Z,16.01
2023-04-17T09:59:33.731Z,16.57
2023-04-17T10:02:02.580Z,16.62
2023-04-17T10:04:31.576Z,16.65
2023-04-17T10:06:59.818Z,16.38
2023-04-17T10:09:28.128Z,16.81
2023-04-17T10:11:57.803Z,16.69
2023-04-17T10:14:27.578Z,17.46
2023-04-17T10:16:57.516Z,16.91
2023-04-17T10:19:31.267Z,16.71
2023-04-17T10:22:41.216Z,17.55
2023-04-17T10:25:23.932Z,17.30
2023-04-17T10:27:58.454Z,17.44
2023-04-17T10:30:54.494Z,18.15
2023-04-17T10:33:26.417Z,17.81
2023-04-17T10:35:55.274Z,17.14
2023-04-17T10:38:34.658Z,16.34
2023-04-17T10:41:05.071Z,16.99
2023-04-17T10:43:33.345Z,17.01
2023-04-17T10:46:06.523Z,17.16
2023-04-17T10:49:01.381Z,16.27
2023-04-17T10:51:48.751Z,16.35
2023-04-17T10:54:17.074Z,16.03
2023-04-17T10:56:48.683Z,16.63
2023-04-17T10:59:23.565Z,17.15
2023-04-17T11:02:01.366Z,17.39
2023-04-17T11:04:34.125Z,16.95
2023-04-17T11:07:03.505Z,16.42
2023-04-17T11:09:31.935Z,16.58
2023-04-17T11:12:02.120Z,16.53
2023-04-17T11:14:32.348Z,16.70
2023-04-17T11:17:02.000Z,16.95
2023-04-17T11:19:33.649Z,16.57
2023-04-17T11:22:02.957Z,17.11
2023-04-17T11:24:32.063Z,18.18
2023-04-17T11:27:02.150Z,18.10
2023-04-17T11:29:30.850Z,17.47
2023-04-17T11:32:00.929Z,17.40
2023-04-17T11:34:29.355Z,17.69
2023-04-17T11:37:01.334Z,17.47
2023-04-17T11:39:30.918Z,17.52
2023-04-17T11:41:59.670Z,16.78
2023-04-17T11:44:29.963Z,17.05
2023-04-17T11:46:59.461Z,17.39
2023-04-17T11:49:28.407Z,17.07
2023-04-17T11:51:59.562Z,17.43
2023-04-17T11:54:28.085Z,18.02
2023-04-17T11:57:01.457Z,17.94
2023-04-17T11:59:33.645Z,17.14
2023-04-17T12:02:02.522Z,17.33
2023-04-17T12:04:34.204Z,18.05
2023-04-17T12:07:05.096Z,18.11
2023-04-17T12:09:33.983Z,18.08
2023-04-17T12:12:04.032Z,18.16
2023-04-17T12:14:32.570Z,19.40
2023-04-17T12:17:01.492Z,19.49
2023-04-17T12:19:32.056Z,19.67
2023-04-17T12:22:01.390Z,19.23
2023-04-17T12:24:32.332Z,19.58
2023-04-17T12:27:01.998Z,19.70
2023-04-17T12:29:42.993Z,20.41
2023-04-17T12:32:12.995Z,20.69
2023-04-17T12:34:41.440Z,19.63
2023-04-17T12:37:09.882Z,19.17
2023-04-17T12:39:39.951Z,19.69
2023-04-17T12:42:08.198Z,19.47
2023-04-17T12:44:36.505Z,19.14
2023-04-17T12:47:04.825Z,19.23
2023-04-17T12:49:33.239Z,19.42
2023-04-17T12:52:03.599Z,18.28
2023-04-17T12:54:33.120Z,19.05
2023-04-17T12:57:03.581Z,19.21
2023-04-17T12:59:31.872Z,19.39
2023-04-17T13:02:03.057Z,19.94
2023-04-17T13:04:31.634Z,19.13
2023-04-17T13:07:00.048Z,18.92
2023-04-17T13:09:28.364Z,18.69
2023-04-17T13:11:57.707Z,18.43
2023-04-17T13:14:27.598Z,19.15
2023-04-17T13:16:55.887Z,19.99
2023-04-17T13:19:24.186Z,20.11
2023-04-17T13:21:52.703Z,20.68
2023-04-17T13:24:21.376Z,20.84
2023-04-17T13:26:50.104Z,19.57
2023-04-17T13:29:19.558Z,19.24
2023-04-17T13:31:49.937Z,19.42
2023-04-17T13:34:18.515Z,20.04
2023-04-17T13:36:46.958Z,20.54
2023-04-17T13:39:15.437Z,21.15
2023-04-17T13:41:43.782Z,22.21
2023-04-17T13:44:12.711Z,22.03
2023-04-17T13:46:41.318Z,20.16
2023-04-17T13:49:11.431Z,20.59
2023-04-17T13:51:40.131Z,19.89
2023-04-17T13:54:10.079Z,20.01
2023-04-17T13:56:38.493Z,19.63
2023-04-17T13:59:06.991Z,19.20
2023-04-17T14:01:44.117Z,19.20
2023-04-17T14:04:16.401Z,18.96
2023-04-17T14:06:47.130Z,19.30
2023-04-17T14:09:16.548Z,19.45
2023-04-17T14:11:45.061Z,19.08
2023-04-17T14:14:13.806Z,18.93
2023-04-17T14:16:43.341Z,18.41
2023-04-17T14:19:14.666Z,18.43
2023-04-17T14:21:45.103Z,18.45
2023-04-17T14:24:13.637Z,18.03
2023-04-17T14:26:42.211Z,18.88
2023-04-17T14:29:14.308Z,19.08
2023-04-17T14:31:42.942Z,19.42
2023-04-17T14:34:11.784Z,19.94
2023-04-17T14:36:40.130Z,19.98
2023-04-17T14:39:09.963Z,19.46
2023-04-17T14:41:38.425Z,19.38
2023-04-17T14:44:06.954Z,19.79
2023-04-17T14:46:35.386Z,19.56
2023-04-17T14:49:03.904Z,19.78
2023-04-17T14:51:38.183Z,20.15
2023-04-17T14:54:26.742Z,20.15
2023-04-17T14:56:56.029Z,20.51
2023-04-17T14:59:24.256Z,20.40
2023-04-17T15:01:52.523Z,20.02
2023-04-17T15:04:22.160Z,21.25
2023-04-17T15:06:50.607Z,20.60
2023-04-17T15:09:18.837Z,20.74
2023-04-17T15:11:48.466Z,20.50
2023-04-17T15:14:19.242Z,20.31
2023-04-17T15:16:47.991Z,20.98
2023-04-17T15:19:16.965Z,19.10
2023-04-17T15:21:45.369Z,20.00
2023-04-17T15:24:13.637Z,19.86
2023-04-17T15:26:44.066Z,18.74
2023-04-17T15:29:18.912Z,19.03
2023-04-17T15:31:47.441Z,17.83
2023-04-17T15:34:18.036Z,17.03
2023-04-17T15:36:46.349Z,16.31
2023-04-17T15:39:18.128Z,17.89
2023-04-17T15:41:46.577Z,18.54
2023-04-17T15:44:17.228Z,18.96
2023-04-17T15:46:46.774Z,17.82
2023-04-17T15:49:16.381Z,16.94
2023-04-17T15:51:44.977Z,16.29
2023-04-17T15:54:13.441Z,17.88
2023-04-17T15:56:42.187Z,18.44
2023-04-17T15:59:10.876Z,18.18
2023-04-17T16:01:40.697Z,17.47
2023-04-17T16:04:09.262Z,17.55
2023-04-17T16:06:37.643Z,17.64
2023-04-17T16:09:06.545Z,17.46
2023-04-17T16:11:35.250Z,17.48
2023-04-17T16:14:03.598Z,17.53
2023-04-17T16:16:31.847Z,18.38
2023-04-17T16:19:01.834Z,18.30
2023-04-17T16:21:31.113Z,18.01
2023-04-17T16:24:01.614Z,18.14
2023-04-17T16:26:30.917Z,16.68
2023-04-17T16:28:59.437Z,17.08
2023-04-17T16:31:28.176Z,17.02
2023-04-17T16:33:56.612Z,16.94
2023-04-17T16:36:27.395Z,16.76
2023-04-17T16:38:55.962Z,17.14
2023-04-17T16:41:24.364Z,17.75
2023-04-17T16:43:53.174Z,18.03
2023-04-17T16:46:35.583Z,17.22
2023-04-17T16:49:13.818Z,17.40
2023-04-17T16:51:43.835Z,17.61
2023-04-17T16:54:12.503Z,17.06
2023-04-17T16:56:42.079Z,17.01
2023-04-17T16:59:10.576Z,16.75
2023-04-17T17:01:39.145Z,16.91
2023-04-17T17:04:07.721Z,16.70
2023-04-17T17:06:37.652Z,16.51
2023-04-17T17:09:08.652Z,16.77
2023-04-17T17:11:37.281Z,16.47
2023-04-17T17:14:05.862Z,16.89
2023-04-17T17:16:36.093Z,16.24
2023-04-17T17:19:04.543Z,16.24
2023-04-17T17:21:32.980Z,16.49
2023-04-17T17:24:02.428Z,16.03
2023-04-17T17:26:39.580Z,16.01
2023-04-17T17:29:07.991Z,16.31
2023-04-17T17:31:36.696Z,14.81
2023-04-17T17:34:22.467Z,14.16
2023-04-17T17:36:53.890Z,15.43
2023-04-17T17:39:24.132Z,15.45
2023-04-17T17:41:55.929Z,14.41
2023-04-17T17:44:27.468Z,13.88
2023-04-17T17:46:56.795Z,14.68
2023-04-17T17:49:27.458Z,14.82
2023-04-17T17:52:14.516Z,14.35
2023-04-17T17:54:45.720Z,13.40
2023-04-17T17:57:16.046Z,14.26
2023-04-17T17:59:45.508Z,14.38
2023-04-17T18:02:15.153Z,13.98
2023-04-17T18:04:45.526Z,14.57
2023-04-17T18:07:14.419Z,14.33
2023-04-17T18:09:43.345Z,13.65
2023-04-17T18:12:15.050Z,14.29
2023-04-17T18:15:10.609Z,14.33
2023-04-17T18:17:41.668Z,14.62
2023-04-17T18:20:19.491Z,14.74
2023-04-17T18:22:51.217Z,14.05
2023-04-17T18:25:39.698Z,14.20
2023-04-17T18:31:07.024Z,14.10
2023-04-17T18:33:38.262Z,14.13
2023-04-17T18:36:08.735Z,13.90
2023-04-17T18:38:40.594Z,14.06
2023-04-17T18:41:13.779Z,14.07
2023-04-17T18:46:50.674Z,13.87
2023-04-17T18:49:23.626Z,13.72
2023-04-17T18:51:57.575Z,13.72
2023-04-17T18:54:27.616Z,13.56
2023-04-17T18:57:03.375Z,13.59
2023-04-17T18:59:33.678Z,13.59
2023-04-17T19:02:03.735Z,13.40
2023-04-17T19:04:33.864Z,13.17
2023-04-17T19:07:04.245Z,13.50
2023-04-17T19:09:39.314Z,13.23
2023-04-17T19:12:09.283Z,13.19
2023-04-17T19:14:45.744Z,13.10
2023-04-17T19:17:19.465Z,13.20
2023-04-17T19:19:51.100Z,13.28
2023-04-17T19:22:29.397Z,13.35
2023-04-17T19:28:04.271Z,13.25
2023-04-17T19:30:48.710Z,13.44
2023-04-17T19:33:24.994Z,13.16
2023-04-17T19:36:05.584Z,13.38
2023-04-17T19:39:12.869Z,12.83
2023-04-17T19:41:51.043Z,13.11
2023-04-17T19:44:20.918Z,13.20
2023-04-17T19:46:49.510Z,12.81
2023-04-17T19:49:21.401Z,11.85
2023-04-17T19:52:03.240Z,12.17
2023-04-17T19:54:32.276Z,12.41
2023-04-17T19:57:03.412Z,12.27
2023-04-17T19:59:34.316Z,13.75
2023-04-17T20:02:03.980Z,13.66
2023-04-17T20:04:36.703Z,13.63
2023-04-17T20:07:07.884Z,13.48
2023-04-17T20:09:36.955Z,13.31
2023-04-17T20:12:06.221Z,13.23
2023-04-17T20:14:36.305Z,12.96
2023-04-17T20:17:06.422Z,13.02
2023-04-17T20:19:38.365Z,13.08
2023-04-17T20:22:07.746Z,12.72
2023-04-17T20:24:39.779Z,13.08
2023-04-17T20:27:10.748Z,12.74
2023-04-17T20:29:40.133Z,12.55
2023-04-17T20:32:11.780Z,12.43
2023-04-17T20:34:44.861Z,12.34
2023-04-17T20:37:33.895Z,12.65
2023-04-17T20:40:05.589Z,12.39
2023-04-17T20:42:35.772Z,12.60
2023-04-17T20:45:05.640Z,12.60
2023-04-17T20:47:34.202Z,12.68
2023-04-17T20:50:04.811Z,12.58
2023-04-17T20:52:37.432Z,12.63
2023-04-17T20:55:07.544Z,12.32
2023-04-17T20:57:41.954Z,12.03
2023-04-17T21:00:23.324Z,11.89
2023-04-17T21:02:54.195Z,11.98
2023-04-17T21:05:35.277Z,12.50
2023-04-17T21:11:01.866Z,11.79
2023-04-17T21:13:35.081Z,11.93
2023-04-17T21:16:07.678Z,11.85
2023-04-17T21:18:53.791Z,11.87
2023-04-17T21:21:28.962Z,12.07
2023-04-17T21:24:05.863Z,11.85
2023-04-17T21:26:34.144Z,12.02
2023-04-17T21:29:02.434Z,11.98
2023-04-17T21:31:31.836Z,11.83
2023-04-17T21:34:00.193Z,11.84
2023-04-17T21:36:30.025Z,11.41
2023-04-17T21:38:58.766Z,11.79
2023-04-17T21:41:27.288Z,11.44
2023-04-17T21:43:55.623Z,11.13
2023-04-17T21:46:25.228Z,11.14
2023-04-17T21:48:55.972Z,11.05
2023-04-17T21:51:25.245Z,11.11
2023-04-17T21:53:54.985Z,11.11
2023-04-17T21:56:24.109Z,11.11
2023-04-17T21:58:52.488Z,11.16
2023-04-17T22:01:21.038Z,11.21
2023-04-17T22:03:49.332Z,10.21
2023-04-17T22:06:18.221Z,11.05
2023-04-17T22:08:47.439Z,10.96
2023-04-17T22:11:17.374Z,11.16
2023-04-17T22:13:47.139Z,11.42
2023-04-17T22:16:15.896Z,11.28
2023-04-17T22:18:45.340Z,11.30
2023-04-17T22:21:13.713Z,11.39
2023-04-17T22:23:41.972Z,10.97
2023-04-17T22:26:10.251Z,11.29
2023-04-17T22:28:39.910Z,11.28
2023-04-17T22:31:08.281Z,11.36
2023-04-17T22:33:37.238Z,11.11
2023-04-17T22:36:05.703Z,11.08
2023-04-17T22:38:34.190Z,11.30
2023-04-17T22:41:03.278Z,11.59
2023-04-17T22:43:31.587Z,11.30
2023-04-17T22:52:57.639Z,10.24
2023-04-17T23:02:01.018Z,9.56
2023-04-17T23:04:29.375Z,9.65
2023-04-17T23:06:59.059Z,9.49
2023-04-17T23:09:27.533Z,9.23
2023-04-17T23:11:56.218Z,9.24
2023-04-17T23:14:24.928Z,9.03
2023-04-17T23:16:53.409Z,8.90
2023-04-17T23:19:22.579Z,9.07
2023-04-17T23:21:50.844Z,8.92
2023-04-17T23:24:20.984Z,8.95
2023-04-17T23:26:49.614Z,8.96
2023-04-17T23:29:17.860Z,9.06
2023-04-17T23:31:46.566Z,8.99
2023-04-17T23:34:15.053Z,9.00
2023-04-17T23:36:43.435Z,8.96
2023-04-17T23:39:11.983Z,8.95
2023-04-17T23:41:43.035Z,8.99
2023-04-17T23:44:11.670Z,8.85
2023-04-17T23:46:40.283Z,8.82
2023-04-17T23:49:08.729Z,8.67
2023-04-17T23:51:37.032Z,8.68
2023-04-17T23:54:05.586Z,8.64
2023-04-17T23:56:33.960Z,8.68
2023-04-17T23:59:03.620Z,8.60
